No2 Toa Maru — JD2163 — position and weather

sailwx.info

Track history (hours):
 
Tides and Currents Weather Stations Pressure Air Temp Water Temp Dewpoint Dewpoint Depression Visibility Wind Speed Wind Dir Waves Ship Positions

No2 Toa Maru

Last reported at 2017-Aug-18 23:29 UTC. Time now 2017-Aug-18 23:51 UTC.
Position N 35°13' E 139°43'.

Length 40 m; draft 2.8 m.

Type: Tug. MMSI: 431101119.

Date/timePositionNaut miles runAvg speedWind from/ knotsBaromVisibWave heightAir tempDewpointWater temp
2017-Aug-18 23:29N 35°13' E 139°43'0 0.0
2017-Aug-18 23:00N 35°13' E 139°43'5 9.8
2017-Aug-18 22:30N 35°10' E 139°47'4 8.6
2017-Aug-18 22:00N 35°13' E 139°44'1 1.3
2017-Aug-18 21:30N 35°13' E 139°43'0 0.0
2017-Aug-18 21:00N 35°13' E 139°43'0 0.0
2017-Aug-18 20:30N 35°13' E 139°43'5 9.7
2017-Aug-18 20:00N 35°10' E 139°47'1 2.2
2017-Aug-18 19:30N 35°11' E 139°46'4 7.5
2017-Aug-18 19:00N 35°13' E 139°43'0 0.0
2017-Aug-18 18:30N 35°13' E 139°43'0 0.0
2017-Aug-18 17:57N 35°13' E 139°43'0 0.0
2017-Aug-18 17:28N 35°13' E 139°43'0 0.0
2017-Aug-18 16:07N 35°13' E 139°43'0 0.0
2017-Aug-18 15:59N 35°13' E 139°43'0 0.0
2017-Aug-18 15:28N 35°13' E 139°43'0 0.0
2017-Aug-18 14:59N 35°13' E 139°43'0 0.0
2017-Aug-18 14:30N 35°13' E 139°43'0 0.0
2017-Aug-18 13:27N 35°13' E 139°43'0 0.0
2017-Aug-18 12:53N 35°13' E 139°43'0 0.0
2017-Aug-18 12:30N 35°13' E 139°43'0 0.0
2017-Aug-18 11:59N 35°13' E 139°43'2 4.6
2017-Aug-18 11:30N 35°13' E 139°46'0 0.5
2017-Aug-18 11:00N 35°13' E 139°46'3 5.3
2017-Aug-18 10:30N 35°11' E 139°47'4 7.7
2017-Aug-18 09:58N 35°13' E 139°43'0 0.0
2017-Aug-18 09:29N 35°13' E 139°43'0 0.0
2017-Aug-18 09:00N 35°13' E 139°43'0 0.0
2017-Aug-18 08:25N 35°13' E 139°43'0 0.0
2017-Aug-18 08:00N 35°13' E 139°43'0 0.0
2017-Aug-18 07:29N 35°13' E 139°43'1 1.4
2017-Aug-18 07:00N 35°13' E 139°44'5 9.1
2017-Aug-18 06:31N 35°10' E 139°47'4 7.8
2017-Aug-18 06:00N 35°13' E 139°45'1 2.6
2017-Aug-18 05:30N 35°13' E 139°43'0 0.0
2017-Aug-18 04:55N 35°13' E 139°43'0 0.0
2017-Aug-18 04:30N 35°13' E 139°43'0 0.0
2017-Aug-18 03:59N 35°13' E 139°43'1 2.2
2017-Aug-18 03:30N 35°13' E 139°44'1 2.0
2017-Aug-18 03:00N 35°14' E 139°45'2 3.9
2017-Aug-18 02:31N 35°13' E 139°43'0 0.0
2017-Aug-18 02:01N 35°13' E 139°43'2 4.0
2017-Aug-18 01:30N 35°12' E 139°45'2 4.6
2017-Aug-18 01:00N 35°10' E 139°47'4 8.6
2017-Aug-18 00:30N 35°13' E 139°43'0 0.1
2017-Aug-18 00:00N 35°13' E 139°43'0 0.0
2017-Aug-17 23:29N 35°13' E 139°43'0 0.0
2017-Aug-17 22:59N 35°13' E 139°43'5 9.8
2017-Aug-17 22:30N 35°09' E 139°46'4 7.4
2017-Aug-17 22:00N 35°13' E 139°45'1 2.8
2017-Aug-17 21:30N 35°13' E 139°43'0 0.0
2017-Aug-17 21:00N 35°13' E 139°43'0 0.0
2017-Aug-17 20:30N 35°13' E 139°43'0 0.0
2017-Aug-17 20:00N 35°13' E 139°43'5 9.1
2017-Aug-17 19:30N 35°10' E 139°47'3 6.8
2017-Aug-17 19:00N 35°13' E 139°45'1 2.5
2017-Aug-17 18:30N 35°13' E 139°43'0 0.0
2017-Aug-17 18:00N 35°13' E 139°43'0 0.0
2017-Aug-17 17:30N 35°13' E 139°43'0 0.0
2017-Aug-17 16:55N 35°13' E 139°43'0 0.0
2017-Aug-17 16:30N 35°13' E 139°43'0 0.0
2017-Aug-17 15:57N 35°13' E 139°43'0 0.0
2017-Aug-17 15:30N 35°13' E 139°43'0 0.0
2017-Aug-17 15:00N 35°13' E 139°43'0 0.0
2017-Aug-17 14:28N 35°13' E 139°43'0 0.0
2017-Aug-17 13:58N 35°13' E 139°43'0 0.0
2017-Aug-17 13:29N 35°13' E 139°43'0 0.0
2017-Aug-17 12:54N 35°13' E 139°43'0 0.0
2017-Aug-17 12:30N 35°13' E 139°43'0 0.0
2017-Aug-17 11:59N 35°13' E 139°43'0 0.0
2017-Aug-17 11:29N 35°13' E 139°43'2 4.8
2017-Aug-17 11:01N 35°12' E 139°46'1 1.5
2017-Aug-17 10:30N 35°13' E 139°46'1 2.7
2017-Aug-17 10:01N 35°13' E 139°44'1 1.7
2017-Aug-17 09:30N 35°13' E 139°43'0 0.0
2017-Aug-17 09:00N 35°13' E 139°43'0 0.0
2017-Aug-17 08:31N 35°13' E 139°43'2 3.6
2017-Aug-17 08:00N 35°13' E 139°45'1 2.5
2017-Aug-17 07:30N 35°13' E 139°44'1 1.0
2017-Aug-17 07:00N 35°13' E 139°43'0 0.0
2017-Aug-17 06:25N 35°13' E 139°43'2 4.2
2017-Aug-17 06:00N 35°12' E 139°45'0 0.5
2017-Aug-17 05:30N 35°12' E 139°45'0 0.3
2017-Aug-17 05:00N 35°12' E 139°45'0 0.3
2017-Aug-17 04:30N 35°12' E 139°45'1 2.3
2017-Aug-17 04:00N 35°13' E 139°44'1 2.1
2017-Aug-17 03:30N 35°13' E 139°43'0 0.0
2017-Aug-17 03:00N 35°13' E 139°43'0 0.0
2017-Aug-17 02:30N 35°13' E 139°43'0 0.3
2017-Aug-17 02:00N 35°13' E 139°43'0 0.2
2017-Aug-17 01:30N 35°13' E 139°43'0 0.6
2017-Aug-17 01:00N 35°13' E 139°43'1 2.2
2017-Aug-17 00:30N 35°13' E 139°44'3 5.9
2017-Aug-17 00:00N 35°11' E 139°47'4 7.6
2017-Aug-16 23:30N 35°13' E 139°43'0 0.0
2017-Aug-16 23:00N 35°13' E 139°43'0 0.0
2017-Aug-16 22:30N 35°13' E 139°43'0 0.0
2017-Aug-16 21:57N 35°13' E 139°43'0 0.0
2017-Aug-16 21:30N 35°13' E 139°43'1 2.3
2017-Aug-16 21:00N 35°13' E 139°44'4 7.0
2017-Aug-16 20:30N 35°10' E 139°47'4 9.1
2017-Aug-16 20:00N 35°13' E 139°43'0 0.3
2017-Aug-16 19:30N 35°13' E 139°43'0 0.0
2017-Aug-16 19:00N 35°13' E 139°43'0 0.0
2017-Aug-16 18:30N 35°13' E 139°43'0 0.0
2017-Aug-16 18:00N 35°13' E 139°43'0 0.0
2017-Aug-16 17:31N 35°13' E 139°43'0 0.0
2017-Aug-16 17:00N 35°13' E 139°43'0 0.0
2017-Aug-16 16:31N 35°13' E 139°43'0 0.0
2017-Aug-16 16:00N 35°13' E 139°43'0 0.0
2017-Aug-16 15:30N 35°13' E 139°43'0 0.0
2017-Aug-16 15:00N 35°13' E 139°43'0 0.0
2017-Aug-16 14:30N 35°13' E 139°43'0 0.0
2017-Aug-16 14:00N 35°13' E 139°43'0 0.0
2017-Aug-16 13:30N 35°13' E 139°43'0 0.0
2017-Aug-16 13:00N 35°13' E 139°43'3 5.2
2017-Aug-16 12:30N 35°12' E 139°46'1 2.9
2017-Aug-16 12:00N 35°14' E 139°46'2 4.1
2017-Aug-16 11:31N 35°13' E 139°43'0 0.0
2017-Aug-16 10:53N 35°13' E 139°43'0 0.0
2017-Aug-16 10:27N 35°13' E 139°43'0 0.0
2017-Aug-16 10:00N 35°13' E 139°43'1 1.7
2017-Aug-16 09:30N 35°13' E 139°44'1 2.0
2017-Aug-16 09:00N 35°13' E 139°45'2 3.5
2017-Aug-16 08:30N 35°13' E 139°43'0 0.0
2017-Aug-16 08:00N 35°13' E 139°43'0 0.0
2017-Aug-16 07:30N 35°13' E 139°43'0 0.0
2017-Aug-16 07:00N 35°13' E 139°43'2 4.3
2017-Aug-16 06:31N 35°13' E 139°46'1 2.1
2017-Aug-16 06:00N 35°13' E 139°44'1 2.2
2017-Aug-16 05:30N 35°13' E 139°43'0 0.0
2017-Aug-16 05:00N 35°13' E 139°43'0 0.0
2017-Aug-16 04:27N 35°13' E 139°43'2 5.6
2017-Aug-16 04:01N 35°13' E 139°46'1 1.8
2017-Aug-16 03:30N 35°13' E 139°45'2 3.4
2017-Aug-16 03:00N 35°13' E 139°43'0 0.0
2017-Aug-16 02:30N 35°13' E 139°43'3 6.9
2017-Aug-16 02:00N 35°10' E 139°45'1 1.1
2017-Aug-16 01:30N 35°11' E 139°46'4 7.3
2017-Aug-16 01:00N 35°13' E 139°43'0 0.0
2017-Aug-16 00:30N 35°13' E 139°43'0 0.0
2017-Aug-16 00:00N 35°13' E 139°43'0 0.0
2017-Aug-15 23:30N 35°13' E 139°43'0 0.0
2017-Aug-15 23:00N 35°13' E 139°43'0 0.0
2017-Aug-15 22:30N 35°13' E 139°43'0 0.0
2017-Aug-15 22:00N 35°13' E 139°43'0 0.0
2017-Aug-15 21:30N 35°13' E 139°43'0 0.0
2017-Aug-15 21:00N 35°13' E 139°43'3 5.3
2017-Aug-15 20:30N 35°11' E 139°45'1 1.4
2017-Aug-15 20:00N 35°11' E 139°46'3 6.6
2017-Aug-15 19:30N 35°13' E 139°43'0 0.0
2017-Aug-15 19:00N 35°13' E 139°43'0 0.0
2017-Aug-15 18:30N 35°13' E 139°43'0 0.0
2017-Aug-15 18:00N 35°13' E 139°43'0 0.2
2017-Aug-15 17:30N 35°13' E 139°43'2 3.3
2017-Aug-15 17:00N 35°13' E 139°45'2 3.6
2017-Aug-15 16:30N 35°13' E 139°43'0 0.0
2017-Aug-15 16:00N 35°13' E 139°43'0 0.0
2017-Aug-15 15:30N 35°13' E 139°43'0 0.0
2017-Aug-15 15:00N 35°13' E 139°43'0 0.0
2017-Aug-15 14:30N 35°13' E 139°43'0 0.0
2017-Aug-15 14:00N 35°13' E 139°43'0 0.0
2017-Aug-15 13:30N 35°13' E 139°43'0 0.0
2017-Aug-15 13:00N 35°13' E 139°43'0 0.0
2017-Aug-15 12:30N 35°13' E 139°43'0 0.0
2017-Aug-15 12:00N 35°13' E 139°43'2 4.0
2017-Aug-15 11:30N 35°14' E 139°46'1 2.8
2017-Aug-15 11:00N 35°13' E 139°44'1 1.3
2017-Aug-15 10:30N 35°13' E 139°43'2 3.8
2017-Aug-15 10:00N 35°12' E 139°45'2 3.2
2017-Aug-15 09:30N 35°14' E 139°45'3 5.2
2017-Aug-15 09:00N 35°11' E 139°46'1 2.0
2017-Aug-15 08:30N 35°10' E 139°47'4 8.0
2017-Aug-15 08:00N 35°13' E 139°43'0 0.1
2017-Aug-15 07:30N 35°13' E 139°43'2 4.0
2017-Aug-15 07:00N 35°13' E 139°46'4 8.1
2017-Aug-15 06:30N 35°09' E 139°46'2 3.3
2017-Aug-15 06:00N 35°11' E 139°47'4 7.9
2017-Aug-15 05:30N 35°13' E 139°43'0 0.0
2017-Aug-15 05:00N 35°13' E 139°43'0 0.0
2017-Aug-15 04:30N 35°13' E 139°43'0 0.0
2017-Aug-15 04:00N 35°13' E 139°43'0 0.0
2017-Aug-15 03:30N 35°13' E 139°43'0 0.0
2017-Aug-15 03:00N 35°13' E 139°43'0 0.0
2017-Aug-15 02:30N 35°13' E 139°43'1 2.5
2017-Aug-15 02:00N 35°13' E 139°44'3 5.9
2017-Aug-15 01:30N 35°10' E 139°47'4 8.4
2017-Aug-15 01:00N 35°13' E 139°43'0 0.0
2017-Aug-15 00:29N 35°13' E 139°43'0 0.0
2017-Aug-15 00:00N 35°13' E 139°43'0 0.0
2017-Aug-14 23:30N 35°13' E 139°43'0 0.0
2017-Aug-14 23:00N 35°13' E 139°43'0 0.0
2017-Aug-14 22:30N 35°13' E 139°43'0 0.0
2017-Aug-14 22:00N 35°13' E 139°43'2 4.4
2017-Aug-14 21:30N 35°13' E 139°46'1 1.2
2017-Aug-14 21:00N 35°13' E 139°45'4 7.3
2017-Aug-14 20:30N 35°10' E 139°46'1 1.9
2017-Aug-14 20:00N 35°10' E 139°47'5 9.2
2017-Aug-14 19:30N 35°13' E 139°43'2 3.8
2017-Aug-14 19:00N 35°13' E 139°45'2 3.2
2017-Aug-14 18:30N 35°13' E 139°43'0 0.6
2017-Aug-14 18:00N 35°13' E 139°43'0 0.0
2017-Aug-14 17:30N 35°13' E 139°43'0 0.0
2017-Aug-14 17:00N 35°13' E 139°43'0 0.0
2017-Aug-14 16:30N 35°13' E 139°43'0 0.0
2017-Aug-14 16:00N 35°13' E 139°43'0 0.0
2017-Aug-14 15:30N 35°13' E 139°43'0 0.0
2017-Aug-14 15:00N 35°13' E 139°43'0 0.0
2017-Aug-14 14:30N 35°13' E 139°43'0 0.0
2017-Aug-14 14:00N 35°13' E 139°43'0 0.0
2017-Aug-14 13:30N 35°13' E 139°43'0 0.0
2017-Aug-14 13:00N 35°13' E 139°43'0 0.0
2017-Aug-14 12:30N 35°13' E 139°43'3 5.5
2017-Aug-14 12:00N 35°12' E 139°46'2 3.9
2017-Aug-14 11:30N 35°14' E 139°45'2 3.4
2017-Aug-14 11:00N 35°13' E 139°43'0 0.0
2017-Aug-14 10:30N 35°13' E 139°43'0 0.0
2017-Aug-14 10:00N 35°13' E 139°43'0 0.0
2017-Aug-14 09:29N 35°13' E 139°43'2 4.6
2017-Aug-14 09:00N 35°13' E 139°46'1 2.1
2017-Aug-14 08:30N 35°14' E 139°45'2 3.7
2017-Aug-14 08:00N 35°13' E 139°43'2 4.5
2017-Aug-14 07:30N 35°13' E 139°46'2 3.9
2017-Aug-14 07:00N 35°11' E 139°46'1 2.6
2017-Aug-14 06:30N 35°10' E 139°47'5 9.3
2017-Aug-14 06:00N 35°13' E 139°43'0 0.0
2017-Aug-14 05:30N 35°13' E 139°43'0 0.0
2017-Aug-14 05:00N 35°13' E 139°43'0 0.2
2017-Aug-14 04:30N 35°13' E 139°43'2 3.8
2017-Aug-14 04:00N 35°13' E 139°46'2 3.3
2017-Aug-14 03:30N 35°13' E 139°43'0 0.6
2017-Aug-14 03:00N 35°13' E 139°43'0 0.0
2017-Aug-14 02:30N 35°13' E 139°43'0 0.0
2017-Aug-14 02:00N 35°13' E 139°43'1 2.0
2017-Aug-14 01:30N 35°13' E 139°44'4 8.1
2017-Aug-14 01:00N 35°10' E 139°47'0 0.9
2017-Aug-14 00:30N 35°10' E 139°47'4 8.7
2017-Aug-14 00:00N 35°13' E 139°43'0 0.0
2017-Aug-13 23:30N 35°13' E 139°43'0 0.0
2017-Aug-13 23:00N 35°13' E 139°43'5 9.2
2017-Aug-13 22:30N 35°10' E 139°47'4 7.7
2017-Aug-13 22:00N 35°13' E 139°44'1 1.7
2017-Aug-13 21:30N 35°13' E 139°43'0 0.0
2017-Aug-13 21:00N 35°13' E 139°43'0 0.0
2017-Aug-13 20:30N 35°13' E 139°43'4 8.7
2017-Aug-13 20:00N 35°10' E 139°46'2 3.9
2017-Aug-13 19:30N 35°11' E 139°47'4 7.6
2017-Aug-13 19:00N 35°13' E 139°43'0 0.0
2017-Aug-13 18:25N 35°13' E 139°43'0 0.0
2017-Aug-13 17:47N 35°13' E 139°43'0 0.0
2017-Aug-13 17:30N 35°13' E 139°43'0 0.0
2017-Aug-13 17:00N 35°13' E 139°43'0 0.0
2017-Aug-13 16:23N 35°13' E 139°43'3 8.0
2017-Aug-13 16:00N 35°11' E 139°46'1 1.2
2017-Aug-13 15:30N 35°11' E 139°46'3 6.5
2017-Aug-13 15:00N 35°13' E 139°43'0 0.0
2017-Aug-13 14:30N 35°13' E 139°43'0 0.0
2017-Aug-13 14:00N 35°13' E 139°43'0 0.0
2017-Aug-13 13:29N 35°13' E 139°43'0 0.0
2017-Aug-13 13:00N 35°13' E 139°43'0 0.0
2017-Aug-13 12:30N 35°13' E 139°43'2 3.8
2017-Aug-13 12:00N 35°12' E 139°45'1 2.5
2017-Aug-13 11:30N 35°14' E 139°45'2 3.5
2017-Aug-13 11:00N 35°13' E 139°43'0 0.2
2017-Aug-13 10:30N 35°13' E 139°43'0 0.0
2017-Aug-13 10:00N 35°13' E 139°43'0 0.0
2017-Aug-13 09:30N 35°13' E 139°43'3 5.2
2017-Aug-13 09:00N 35°12' E 139°46'1 2.1
2017-Aug-13 08:30N 35°13' E 139°46'2 4.0
2017-Aug-13 08:00N 35°13' E 139°43'0 0.0
2017-Aug-13 07:30N 35°13' E 139°43'0 0.0
2017-Aug-13 07:00N 35°13' E 139°43'3 5.3
2017-Aug-13 06:30N 35°11' E 139°46'2 3.9
2017-Aug-13 06:00N 35°13' E 139°46'2 3.9
2017-Aug-13 05:30N 35°13' E 139°43'0 0.0
2017-Aug-13 05:00N 35°13' E 139°43'0 0.0
2017-Aug-13 04:30N 35°13' E 139°43'3 5.7
2017-Aug-13 04:00N 35°11' E 139°46'1 3.0
2017-Aug-13 03:30N 35°10' E 139°46'4 8.5
2017-Aug-13 03:00N 35°13' E 139°43'0 0.0
2017-Aug-13 02:30N 35°13' E 139°43'0 0.0
2017-Aug-13 02:00N 35°13' E 139°43'3 5.5
2017-Aug-13 01:30N 35°11' E 139°45'2 3.1
2017-Aug-13 01:00N 35°10' E 139°47'4 8.1
2017-Aug-13 00:29N 35°13' E 139°43'0 0.0
2017-Aug-12 23:59N 35°13' E 139°43'0 0.0
2017-Aug-12 23:30N 35°13' E 139°43'2 4.2
2017-Aug-12 23:00N 35°12' E 139°45'1 2.7
2017-Aug-12 22:30N 35°14' E 139°45'2 3.7
2017-Aug-12 22:00N 35°13' E 139°43'0 0.0
2017-Aug-12 21:30N 35°13' E 139°43'0 0.2
2017-Aug-12 21:01N 35°13' E 139°43'5 9.5
2017-Aug-12 20:30N 35°10' E 139°47'2 3.5
2017-Aug-12 20:00N 35°11' E 139°46'3 5.8
2017-Aug-12 19:29N 35°13' E 139°43'0 0.0
2017-Aug-12 19:00N 35°13' E 139°43'0 0.0
2017-Aug-12 18:30N 35°13' E 139°43'0 0.0
2017-Aug-12 18:00N 35°13' E 139°43'0 0.0
2017-Aug-12 17:30N 35°13' E 139°43'0 0.0
2017-Aug-12 17:00N 35°13' E 139°43'0 0.0
2017-Aug-12 16:30N 35°13' E 139°43'0 0.0
2017-Aug-12 16:00N 35°13' E 139°43'2 4.5
2017-Aug-12 15:30N 35°13' E 139°46'1 1.8
2017-Aug-12 15:00N 35°13' E 139°45'2 3.4
2017-Aug-12 14:30N 35°13' E 139°43'0 0.0
2017-Aug-12 14:00N 35°13' E 139°43'0 0.0
2017-Aug-12 13:30N 35°13' E 139°43'0 0.0
2017-Aug-12 13:00N 35°13' E 139°43'0 0.0
2017-Aug-12 12:30N 35°13' E 139°43'0 0.0
2017-Aug-12 12:00N 35°13' E 139°43'0 0.0
2017-Aug-12 11:30N 35°13' E 139°43'0 0.0
2017-Aug-12 11:00N 35°13' E 139°43'0 0.0
2017-Aug-12 10:30N 35°13' E 139°43'0 0.0
2017-Aug-12 10:00N 35°13' E 139°43'2 4.3
2017-Aug-12 09:30N 35°13' E 139°46'1 2.1
2017-Aug-12 09:00N 35°13' E 139°45'1 1.8
2017-Aug-12 08:24N 35°13' E 139°43'0 0.0
2017-Aug-12 08:00N 35°13' E 139°43'0 0.0
2017-Aug-12 07:30N 35°13' E 139°43'1 2.0
2017-Aug-12 07:00N 35°13' E 139°44'3 6.1
2017-Aug-12 06:31N 35°10' E 139°46'4 7.6
2017-Aug-12 06:00N 35°13' E 139°43'0 0.0
2017-Aug-12 05:30N 35°13' E 139°43'3 6.0
2017-Aug-12 05:00N 35°11' E 139°45'2 3.2
2017-Aug-12 04:30N 35°10' E 139°47'4 8.9
2017-Aug-12 04:00N 35°13' E 139°43'0 0.0
2017-Aug-12 03:30N 35°13' E 139°43'0 0.0
2017-Aug-12 03:00N 35°13' E 139°43'0 0.0
2017-Aug-12 02:30N 35°13' E 139°43'0 0.0
2017-Aug-12 01:59N 35°13' E 139°43'2 4.4
2017-Aug-12 01:30N 35°12' E 139°45'1 2.2
2017-Aug-12 01:00N 35°11' E 139°46'3 6.1
2017-Aug-12 00:30N 35°13' E 139°43'0 0.0
2017-Aug-12 00:00N 35°13' E 139°43'0 0.0
2017-Aug-11 23:30N 35°13' E 139°43'3 6.6
2017-Aug-11 23:00N 35°10' E 139°45'1 2.4
2017-Aug-11 22:30N 35°12' E 139°46'3 5.4
2017-Aug-11 22:00N 35°13' E 139°43'0 0.0
2017-Aug-11 21:30N 35°13' E 139°43'0 0.0
2017-Aug-11 21:00N 35°13' E 139°43'0 0.0
2017-Aug-11 20:30N 35°13' E 139°43'1 2.7
2017-Aug-11 20:00N 35°13' E 139°45'4 7.0
2017-Aug-11 19:30N 35°10' E 139°47'5 9.5
2017-Aug-11 19:00N 35°13' E 139°43'0 0.1
2017-Aug-11 18:30N 35°13' E 139°43'0 0.0
2017-Aug-11 18:00N 35°13' E 139°43'0 0.0
2017-Aug-11 17:30N 35°13' E 139°43'0 0.0
2017-Aug-11 17:00N 35°13' E 139°43'0 0.0
2017-Aug-11 16:30N 35°13' E 139°43'0 0.0
2017-Aug-11 16:00N 35°13' E 139°43'0 0.0
2017-Aug-11 15:30N 35°13' E 139°43'0 0.0
2017-Aug-11 15:00N 35°13' E 139°43'0 0.0
2017-Aug-11 14:30N 35°13' E 139°43'2 1.7
2017-Aug-11 13:30N 35°13' E 139°45'2 3.3
2017-Aug-11 13:00N 35°13' E 139°43'0 0.0
2017-Aug-11 12:30N 35°13' E 139°43'0 0.0
2017-Aug-11 12:00N 35°13' E 139°43'0 0.0
2017-Aug-11 11:30N 35°13' E 139°43'0 0.0
2017-Aug-11 11:00N 35°13' E 139°43'0 0.0
2017-Aug-11 10:30N 35°13' E 139°43'0 0.0
2017-Aug-11 10:00N 35°13' E 139°43'0 0.0
2017-Aug-11 09:29N 35°13' E 139°43'0 0.0
2017-Aug-11 09:00N 35°13' E 139°43'1 1.0
2017-Aug-11 08:28N 35°13' E 139°44'0 0.2
2017-Aug-11 08:00N 35°13' E 139°44'1 1.1
2017-Aug-11 07:30N 35°13' E 139°43'0 0.0
2017-Aug-11 07:00N 35°13' E 139°43'0 0.0
2017-Aug-11 06:30N 35°13' E 139°43'0 0.0
2017-Aug-11 05:59N 35°13' E 139°43'0 0.0
2017-Aug-11 05:30N 35°13' E 139°43'0 0.0
2017-Aug-11 05:00N 35°13' E 139°43'0 0.0
2017-Aug-11 04:30N 35°13' E 139°43'1 1.1
2017-Aug-11 04:00N 35°13' E 139°44'1 1.1
2017-Aug-11 03:30N 35°13' E 139°43'0 0.0
2017-Aug-11 03:00N 35°13' E 139°43'0 0.0
2017-Aug-11 02:30N 35°13' E 139°43'0 0.0
2017-Aug-11 02:00N 35°13' E 139°43'2 4.4
2017-Aug-11 01:30N 35°13' E 139°46'1 1.7
2017-Aug-11 01:00N 35°13' E 139°45'2 3.4
2017-Aug-11 00:30N 35°13' E 139°43'0 0.0
2017-Aug-11 00:00N 35°13' E 139°43'0 0.0
2017-Aug-10 23:30N 35°13' E 139°43'0 0.0
2017-Aug-10 23:00N 35°13' E 139°43'0 0.0
2017-Aug-10 22:30N 35°13' E 139°43'0 0.0
2017-Aug-10 22:00N 35°13' E 139°43'0 0.0
2017-Aug-10 21:30N 35°13' E 139°43'0 0.0
2017-Aug-10 21:00N 35°13' E 139°43'0 0.0
2017-Aug-10 20:30N 35°13' E 139°43'0 0.0
2017-Aug-10 20:00N 35°13' E 139°43'0 0.0
2017-Aug-10 19:30N 35°13' E 139°43'1 2.2
2017-Aug-10 19:00N 35°13' E 139°44'1 2.0
2017-Aug-10 18:30N 35°13' E 139°46'1 2.0
2017-Aug-10 18:00N 35°13' E 139°44'1 2.1
2017-Aug-10 17:30N 35°13' E 139°43'0 0.0
2017-Aug-10 17:00N 35°13' E 139°43'0 0.0
2017-Aug-10 16:30N 35°13' E 139°43'2 3.5
2017-Aug-10 16:00N 35°14' E 139°45'2 3.3
2017-Aug-10 15:30N 35°13' E 139°43'0 0.0
2017-Aug-10 14:59N 35°13' E 139°43'0 0.0
2017-Aug-10 14:30N 35°13' E 139°43'0 0.0
2017-Aug-10 14:00N 35°13' E 139°43'0 0.0
2017-Aug-10 13:30N 35°13' E 139°43'0 0.0
2017-Aug-10 13:00N 35°13' E 139°43'2 3.9
2017-Aug-10 12:30N 35°13' E 139°46'1 2.0
2017-Aug-10 12:00N 35°13' E 139°44'1 2.1
2017-Aug-10 11:30N 35°13' E 139°43'0 0.0
2017-Aug-10 11:00N 35°13' E 139°43'2 4.9
2017-Aug-10 10:30N 35°13' E 139°46'1 2.4
2017-Aug-10 10:00N 35°14' E 139°45'2 3.6
2017-Aug-10 09:30N 35°13' E 139°43'0 0.0
2017-Aug-10 09:00N 35°13' E 139°43'0 0.0
2017-Aug-10 08:30N 35°13' E 139°43'0 0.0
2017-Aug-10 08:00N 35°13' E 139°43'3 5.0
2017-Aug-10 07:30N 35°12' E 139°46'2 4.3
2017-Aug-10 07:01N 35°14' E 139°45'2 3.7
2017-Aug-10 06:30N 35°13' E 139°43'2 3.4
2017-Aug-10 06:00N 35°14' E 139°45'2 3.7
2017-Aug-10 05:30N 35°13' E 139°43'0 0.3
2017-Aug-10 05:00N 35°13' E 139°43'0 0.0
2017-Aug-10 04:30N 35°13' E 139°43'0 0.0
2017-Aug-10 04:00N 35°13' E 139°43'0 0.0
2017-Aug-10 03:30N 35°13' E 139°43'0 0.0
2017-Aug-10 03:00N 35°13' E 139°43'0 0.0
2017-Aug-10 02:30N 35°13' E 139°43'0 0.0
2017-Aug-10 02:01N 35°13' E 139°43'0 0.0
2017-Aug-10 01:30N 35°13' E 139°43'0 0.0
2017-Aug-10 00:58N 35°13' E 139°43'0 0.0
2017-Aug-10 00:30N 35°13' E 139°43'4 8.3
2017-Aug-10 00:00N 35°10' E 139°46'1 2.1
2017-Aug-09 23:30N 35°11' E 139°46'3 6.5
2017-Aug-09 23:00N 35°13' E 139°43'0 0.0
2017-Aug-09 22:30N 35°13' E 139°43'0 0.0
2017-Aug-09 22:00N 35°13' E 139°43'0 0.0
2017-Aug-09 21:30N 35°13' E 139°43'0 0.0
2017-Aug-09 21:00N 35°13' E 139°43'510.5
2017-Aug-09 20:30N 35°09' E 139°47'4 8.1
2017-Aug-09 20:00N 35°13' E 139°45'1 3.0
2017-Aug-09 19:30N 35°13' E 139°43'0 0.0
2017-Aug-09 19:00N 35°13' E 139°43'0 0.0
2017-Aug-09 18:30N 35°13' E 139°43'2 4.6
2017-Aug-09 18:01N 35°13' E 139°46'1 1.6
2017-Aug-09 17:31N 35°13' E 139°45'2 3.4
2017-Aug-09 17:00N 35°13' E 139°43'0 0.0
2017-Aug-09 16:31N 35°13' E 139°43'0 0.0
2017-Aug-09 16:00N 35°13' E 139°43'0 0.0
2017-Aug-09 15:30N 35°13' E 139°43'0 0.0
2017-Aug-09 14:57N 35°13' E 139°43'0 0.0
2017-Aug-09 14:30N 35°13' E 139°43'0 0.0
2017-Aug-09 14:00N 35°13' E 139°43'0 0.0
2017-Aug-09 13:30N 35°13' E 139°43'0 0.0
2017-Aug-09 13:01N 35°13' E 139°43'0 0.0
2017-Aug-09 12:31N 35°13' E 139°43'0 0.0
2017-Aug-09 12:00N 35°13' E 139°43'0 0.0
2017-Aug-09 11:30N 35°13' E 139°43'1 2.5
2017-Aug-09 11:01N 35°13' E 139°45'1 2.3
2017-Aug-09 10:30N 35°14' E 139°45'2 4.8
2017-Aug-09 10:01N 35°11' E 139°46'1 1.6
2017-Aug-09 09:30N 35°11' E 139°47'4 7.7
2017-Aug-09 09:00N 35°13' E 139°43'3 5.1
2017-Aug-09 08:30N 35°12' E 139°46'1 1.9
2017-Aug-09 08:00N 35°13' E 139°46'1 1.7
2017-Aug-09 07:30N 35°14' E 139°46'3 5.9
2017-Aug-09 07:00N 35°11' E 139°45'1 2.1
2017-Aug-09 06:30N 35°11' E 139°47'3 6.6
2017-Aug-09 06:00N 35°13' E 139°43'0 0.0
2017-Aug-09 05:30N 35°13' E 139°43'0 0.0
2017-Aug-09 05:00N 35°13' E 139°43'0 0.0
2017-Aug-09 04:30N 35°13' E 139°43'0 0.0
2017-Aug-09 04:00N 35°13' E 139°43'0 0.0
2017-Aug-09 03:30N 35°13' E 139°43'0 0.0
2017-Aug-09 03:00N 35°13' E 139°43'0 0.0
2017-Aug-09 02:30N 35°13' E 139°43'1 1.7
2017-Aug-09 02:00N 35°13' E 139°44'4 8.3
2017-Aug-09 01:30N 35°10' E 139°47'3 6.1
2017-Aug-09 01:01N 35°12' E 139°45'2 3.6
2017-Aug-09 00:30N 35°13' E 139°43'0 0.0
2017-Aug-09 00:00N 35°13' E 139°43'0 0.0
2017-Aug-08 23:30N 35°13' E 139°43'  
Track history (hours):
 
Tides and Currents Weather Stations Pressure Air Temp Water Temp Dewpoint Dewpoint Depression Visibility Wind Speed Wind Dir Waves Ship Positions

No2 Toa Maru

Last reported at 2017-Aug-18 23:29 UTC. Time now 2017-Aug-18 23:51 UTC.
Position N 35°13' E 139°43'.

Length 40 m; draft 2.8 m.

Type: Tug. MMSI: 431101119.

Date/timePositionNaut miles runAvg speedWind from/ knotsBaromVisibWave heightAir tempDewpointWater temp
2017-Aug-18 23:29N 35°13' E 139°43'0 0.0
2017-Aug-18 23:00N 35°13' E 139°43'5 9.8
2017-Aug-18 22:30N 35°10' E 139°47'4 8.6
2017-Aug-18 22:00N 35°13' E 139°44'1 1.3
2017-Aug-18 21:30N 35°13' E 139°43'0 0.0
2017-Aug-18 21:00N 35°13' E 139°43'0 0.0
2017-Aug-18 20:30N 35°13' E 139°43'5 9.7
2017-Aug-18 20:00N 35°10' E 139°47'1 2.2
2017-Aug-18 19:30N 35°11' E 139°46'4 7.5
2017-Aug-18 19:00N 35°13' E 139°43'0 0.0
2017-Aug-18 18:30N 35°13' E 139°43'0 0.0
2017-Aug-18 17:57N 35°13' E 139°43'0 0.0
2017-Aug-18 17:28N 35°13' E 139°43'0 0.0
2017-Aug-18 16:07N 35°13' E 139°43'0 0.0
2017-Aug-18 15:59N 35°13' E 139°43'0 0.0
2017-Aug-18 15:28N 35°13' E 139°43'0 0.0
2017-Aug-18 14:59N 35°13' E 139°43'0 0.0
2017-Aug-18 14:30N 35°13' E 139°43'0 0.0
2017-Aug-18 13:27N 35°13' E 139°43'0 0.0
2017-Aug-18 12:53N 35°13' E 139°43'0 0.0
2017-Aug-18 12:30N 35°13' E 139°43'0 0.0
2017-Aug-18 11:59N 35°13' E 139°43'2 4.6
2017-Aug-18 11:30N 35°13' E 139°46'0 0.5
2017-Aug-18 11:00N 35°13' E 139°46'3 5.3
2017-Aug-18 10:30N 35°11' E 139°47'4 7.7
2017-Aug-18 09:58N 35°13' E 139°43'0 0.0
2017-Aug-18 09:29N 35°13' E 139°43'0 0.0
2017-Aug-18 09:00N 35°13' E 139°43'0 0.0
2017-Aug-18 08:25N 35°13' E 139°43'0 0.0
2017-Aug-18 08:00N 35°13' E 139°43'0 0.0
2017-Aug-18 07:29N 35°13' E 139°43'1 1.4
2017-Aug-18 07:00N 35°13' E 139°44'5 9.1
2017-Aug-18 06:31N 35°10' E 139°47'4 7.8
2017-Aug-18 06:00N 35°13' E 139°45'1 2.6
2017-Aug-18 05:30N 35°13' E 139°43'0 0.0
2017-Aug-18 04:55N 35°13' E 139°43'0 0.0
2017-Aug-18 04:30N 35°13' E 139°43'0 0.0
2017-Aug-18 03:59N 35°13' E 139°43'1 2.2
2017-Aug-18 03:30N 35°13' E 139°44'1 2.0
2017-Aug-18 03:00N 35°14' E 139°45'2 3.9
2017-Aug-18 02:31N 35°13' E 139°43'0 0.0
2017-Aug-18 02:01N 35°13' E 139°43'2 4.0
2017-Aug-18 01:30N 35°12' E 139°45'2 4.6
2017-Aug-18 01:00N 35°10' E 139°47'4 8.6
2017-Aug-18 00:30N 35°13' E 139°43'0 0.1
2017-Aug-18 00:00N 35°13' E 139°43'0 0.0
2017-Aug-17 23:29N 35°13' E 139°43'0 0.0
2017-Aug-17 22:59N 35°13' E 139°43'5 9.8
2017-Aug-17 22:30N 35°09' E 139°46'4 7.4
2017-Aug-17 22:00N 35°13' E 139°45'1 2.8
2017-Aug-17 21:30N 35°13' E 139°43'0 0.0
2017-Aug-17 21:00N 35°13' E 139°43'0 0.0
2017-Aug-17 20:30N 35°13' E 139°43'0 0.0
2017-Aug-17 20:00N 35°13' E 139°43'5 9.1
2017-Aug-17 19:30N 35°10' E 139°47'3 6.8
2017-Aug-17 19:00N 35°13' E 139°45'1 2.5
2017-Aug-17 18:30N 35°13' E 139°43'0 0.0
2017-Aug-17 18:00N 35°13' E 139°43'0 0.0
2017-Aug-17 17:30N 35°13' E 139°43'0 0.0
2017-Aug-17 16:55N 35°13' E 139°43'0 0.0
2017-Aug-17 16:30N 35°13' E 139°43'0 0.0
2017-Aug-17 15:57N 35°13' E 139°43'0 0.0
2017-Aug-17 15:30N 35°13' E 139°43'0 0.0
2017-Aug-17 15:00N 35°13' E 139°43'0 0.0
2017-Aug-17 14:28N 35°13' E 139°43'0 0.0
2017-Aug-17 13:58N 35°13' E 139°43'0 0.0
2017-Aug-17 13:29N 35°13' E 139°43'0 0.0
2017-Aug-17 12:54N 35°13' E 139°43'0 0.0
2017-Aug-17 12:30N 35°13' E 139°43'0 0.0
2017-Aug-17 11:59N 35°13' E 139°43'0 0.0
2017-Aug-17 11:29N 35°13' E 139°43'2 4.8
2017-Aug-17 11:01N 35°12' E 139°46'1 1.5
2017-Aug-17 10:30N 35°13' E 139°46'1 2.7
2017-Aug-17 10:01N 35°13' E 139°44'1 1.7
2017-Aug-17 09:30N 35°13' E 139°43'0 0.0
2017-Aug-17 09:00N 35°13' E 139°43'0 0.0
2017-Aug-17 08:31N 35°13' E 139°43'2 3.6
2017-Aug-17 08:00N 35°13' E 139°45'1 2.5
2017-Aug-17 07:30N 35°13' E 139°44'1 1.0
2017-Aug-17 07:00N 35°13' E 139°43'0 0.0
2017-Aug-17 06:25N 35°13' E 139°43'2 4.2
2017-Aug-17 06:00N 35°12' E 139°45'0 0.5
2017-Aug-17 05:30N 35°12' E 139°45'0 0.3
2017-Aug-17 05:00N 35°12' E 139°45'0 0.3
2017-Aug-17 04:30N 35°12' E 139°45'1 2.3
2017-Aug-17 04:00N 35°13' E 139°44'1 2.1
2017-Aug-17 03:30N 35°13' E 139°43'0 0.0
2017-Aug-17 03:00N 35°13' E 139°43'0 0.0
2017-Aug-17 02:30N 35°13' E 139°43'0 0.3
2017-Aug-17 02:00N 35°13' E 139°43'0 0.2
2017-Aug-17 01:30N 35°13' E 139°43'0 0.6
2017-Aug-17 01:00N 35°13' E 139°43'1 2.2
2017-Aug-17 00:30N 35°13' E 139°44'3 5.9
2017-Aug-17 00:00N 35°11' E 139°47'4 7.6
2017-Aug-16 23:30N 35°13' E 139°43'0 0.0
2017-Aug-16 23:00N 35°13' E 139°43'0 0.0
2017-Aug-16 22:30N 35°13' E 139°43'0 0.0
2017-Aug-16 21:57N 35°13' E 139°43'0 0.0
2017-Aug-16 21:30N 35°13' E 139°43'1 2.3
2017-Aug-16 21:00N 35°13' E 139°44'4 7.0
2017-Aug-16 20:30N 35°10' E 139°47'4 9.1
2017-Aug-16 20:00N 35°13' E 139°43'0 0.3
2017-Aug-16 19:30N 35°13' E 139°43'0 0.0
2017-Aug-16 19:00N 35°13' E 139°43'0 0.0
2017-Aug-16 18:30N 35°13' E 139°43'0 0.0
2017-Aug-16 18:00N 35°13' E 139°43'0 0.0
2017-Aug-16 17:31N 35°13' E 139°43'0 0.0
2017-Aug-16 17:00N 35°13' E 139°43'0 0.0
2017-Aug-16 16:31N 35°13' E 139°43'0 0.0
2017-Aug-16 16:00N 35°13' E 139°43'0 0.0
2017-Aug-16 15:30N 35°13' E 139°43'0 0.0
2017-Aug-16 15:00N 35°13' E 139°43'0 0.0
2017-Aug-16 14:30N 35°13' E 139°43'0 0.0
2017-Aug-16 14:00N 35°13' E 139°43'0 0.0
2017-Aug-16 13:30N 35°13' E 139°43'0 0.0
2017-Aug-16 13:00N 35°13' E 139°43'3 5.2
2017-Aug-16 12:30N 35°12' E 139°46'1 2.9
2017-Aug-16 12:00N 35°14' E 139°46'2 4.1
2017-Aug-16 11:31N 35°13' E 139°43'0 0.0
2017-Aug-16 10:53N 35°13' E 139°43'0 0.0
2017-Aug-16 10:27N 35°13' E 139°43'0 0.0
2017-Aug-16 10:00N 35°13' E 139°43'1 1.7
2017-Aug-16 09:30N 35°13' E 139°44'1 2.0
2017-Aug-16 09:00N 35°13' E 139°45'2 3.5
2017-Aug-16 08:30N 35°13' E 139°43'0 0.0
2017-Aug-16 08:00N 35°13' E 139°43'0 0.0
2017-Aug-16 07:30N 35°13' E 139°43'0 0.0
2017-Aug-16 07:00N 35°13' E 139°43'2 4.3
2017-Aug-16 06:31N 35°13' E 139°46'1 2.1
2017-Aug-16 06:00N 35°13' E 139°44'1 2.2
2017-Aug-16 05:30N 35°13' E 139°43'0 0.0
2017-Aug-16 05:00N 35°13' E 139°43'0 0.0
2017-Aug-16 04:27N 35°13' E 139°43'2 5.6
2017-Aug-16 04:01N 35°13' E 139°46'1 1.8
2017-Aug-16 03:30N 35°13' E 139°45'2 3.4
2017-Aug-16 03:00N 35°13' E 139°43'0 0.0
2017-Aug-16 02:30N 35°13' E 139°43'3 6.9
2017-Aug-16 02:00N 35°10' E 139°45'1 1.1
2017-Aug-16 01:30N 35°11' E 139°46'4 7.3
2017-Aug-16 01:00N 35°13' E 139°43'0 0.0
2017-Aug-16 00:30N 35°13' E 139°43'0 0.0
2017-Aug-16 00:00N 35°13' E 139°43'0 0.0
2017-Aug-15 23:30N 35°13' E 139°43'0 0.0
2017-Aug-15 23:00N 35°13' E 139°43'0 0.0
2017-Aug-15 22:30N 35°13' E 139°43'0 0.0
2017-Aug-15 22:00N 35°13' E 139°43'0 0.0
2017-Aug-15 21:30N 35°13' E 139°43'0 0.0
2017-Aug-15 21:00N 35°13' E 139°43'3 5.3
2017-Aug-15 20:30N 35°11' E 139°45'1 1.4
2017-Aug-15 20:00N 35°11' E 139°46'3 6.6
2017-Aug-15 19:30N 35°13' E 139°43'0 0.0
2017-Aug-15 19:00N 35°13' E 139°43'0 0.0
2017-Aug-15 18:30N 35°13' E 139°43'0 0.0
2017-Aug-15 18:00N 35°13' E 139°43'0 0.2
2017-Aug-15 17:30N 35°13' E 139°43'2 3.3
2017-Aug-15 17:00N 35°13' E 139°45'2 3.6
2017-Aug-15 16:30N 35°13' E 139°43'0 0.0
2017-Aug-15 16:00N 35°13' E 139°43'0 0.0
2017-Aug-15 15:30N 35°13' E 139°43'0 0.0
2017-Aug-15 15:00N 35°13' E 139°43'0 0.0
2017-Aug-15 14:30N 35°13' E 139°43'0 0.0
2017-Aug-15 14:00N 35°13' E 139°43'0 0.0
2017-Aug-15 13:30N 35°13' E 139°43'0 0.0
2017-Aug-15 13:00N 35°13' E 139°43'0 0.0
2017-Aug-15 12:30N 35°13' E 139°43'0 0.0
2017-Aug-15 12:00N 35°13' E 139°43'2 4.0
2017-Aug-15 11:30N 35°14' E 139°46'1 2.8
2017-Aug-15 11:00N 35°13' E 139°44'1 1.3
2017-Aug-15 10:30N 35°13' E 139°43'2 3.8
2017-Aug-15 10:00N 35°12' E 139°45'2 3.2
2017-Aug-15 09:30N 35°14' E 139°45'3 5.2
2017-Aug-15 09:00N 35°11' E 139°46'1 2.0
2017-Aug-15 08:30N 35°10' E 139°47'4 8.0
2017-Aug-15 08:00N 35°13' E 139°43'0 0.1
2017-Aug-15 07:30N 35°13' E 139°43'2 4.0
2017-Aug-15 07:00N 35°13' E 139°46'4 8.1
2017-Aug-15 06:30N 35°09' E 139°46'2 3.3
2017-Aug-15 06:00N 35°11' E 139°47'4 7.9
2017-Aug-15 05:30N 35°13' E 139°43'0 0.0
2017-Aug-15 05:00N 35°13' E 139°43'0 0.0
2017-Aug-15 04:30N 35°13' E 139°43'0 0.0
2017-Aug-15 04:00N 35°13' E 139°43'0 0.0
2017-Aug-15 03:30N 35°13' E 139°43'0 0.0
2017-Aug-15 03:00N 35°13' E 139°43'0 0.0
2017-Aug-15 02:30N 35°13' E 139°43'1 2.5
2017-Aug-15 02:00N 35°13' E 139°44'3 5.9
2017-Aug-15 01:30N 35°10' E 139°47'4 8.4
2017-Aug-15 01:00N 35°13' E 139°43'0 0.0
2017-Aug-15 00:29N 35°13' E 139°43'0 0.0
2017-Aug-15 00:00N 35°13' E 139°43'0 0.0
2017-Aug-14 23:30N 35°13' E 139°43'0 0.0
2017-Aug-14 23:00N 35°13' E 139°43'0 0.0
2017-Aug-14 22:30N 35°13' E 139°43'0 0.0
2017-Aug-14 22:00N 35°13' E 139°43'2 4.4
2017-Aug-14 21:30N 35°13' E 139°46'1 1.2
2017-Aug-14 21:00N 35°13' E 139°45'4 7.3
2017-Aug-14 20:30N 35°10' E 139°46'1 1.9
2017-Aug-14 20:00N 35°10' E 139°47'5 9.2
2017-Aug-14 19:30N 35°13' E 139°43'2 3.8
2017-Aug-14 19:00N 35°13' E 139°45'2 3.2
2017-Aug-14 18:30N 35°13' E 139°43'0 0.6
2017-Aug-14 18:00N 35°13' E 139°43'0 0.0
2017-Aug-14 17:30N 35°13' E 139°43'0 0.0
2017-Aug-14 17:00N 35°13' E 139°43'0 0.0
2017-Aug-14 16:30N 35°13' E 139°43'0 0.0
2017-Aug-14 16:00N 35°13' E 139°43'0 0.0
2017-Aug-14 15:30N 35°13' E 139°43'0 0.0
2017-Aug-14 15:00N 35°13' E 139°43'0 0.0
2017-Aug-14 14:30N 35°13' E 139°43'0 0.0
2017-Aug-14 14:00N 35°13' E 139°43'0 0.0
2017-Aug-14 13:30N 35°13' E 139°43'0 0.0
2017-Aug-14 13:00N 35°13' E 139°43'0 0.0
2017-Aug-14 12:30N 35°13' E 139°43'3 5.5
2017-Aug-14 12:00N 35°12' E 139°46'2 3.9
2017-Aug-14 11:30N 35°14' E 139°45'2 3.4
2017-Aug-14 11:00N 35°13' E 139°43'0 0.0
2017-Aug-14 10:30N 35°13' E 139°43'0 0.0
2017-Aug-14 10:00N 35°13' E 139°43'0 0.0
2017-Aug-14 09:29N 35°13' E 139°43'2 4.6
2017-Aug-14 09:00N 35°13' E 139°46'1 2.1
2017-Aug-14 08:30N 35°14' E 139°45'2 3.7
2017-Aug-14 08:00N 35°13' E 139°43'2 4.5
2017-Aug-14 07:30N 35°13' E 139°46'2 3.9
2017-Aug-14 07:00N 35°11' E 139°46'1 2.6
2017-Aug-14 06:30N 35°10' E 139°47'5 9.3
2017-Aug-14 06:00N 35°13' E 139°43'0 0.0
2017-Aug-14 05:30N 35°13' E 139°43'0 0.0
2017-Aug-14 05:00N 35°13' E 139°43'0 0.2
2017-Aug-14 04:30N 35°13' E 139°43'2 3.8
2017-Aug-14 04:00N 35°13' E 139°46'2 3.3
2017-Aug-14 03:30N 35°13' E 139°43'0 0.6
2017-Aug-14 03:00N 35°13' E 139°43'0 0.0
2017-Aug-14 02:30N 35°13' E 139°43'0 0.0
2017-Aug-14 02:00N 35°13' E 139°43'1 2.0
2017-Aug-14 01:30N 35°13' E 139°44'4 8.1
2017-Aug-14 01:00N 35°10' E 139°47'0 0.9
2017-Aug-14 00:30N 35°10' E 139°47'4 8.7
2017-Aug-14 00:00N 35°13' E 139°43'0 0.0
2017-Aug-13 23:30N 35°13' E 139°43'0 0.0
2017-Aug-13 23:00N 35°13' E 139°43'5 9.2
2017-Aug-13 22:30N 35°10' E 139°47'4 7.7
2017-Aug-13 22:00N 35°13' E 139°44'1 1.7
2017-Aug-13 21:30N 35°13' E 139°43'0 0.0
2017-Aug-13 21:00N 35°13' E 139°43'0 0.0
2017-Aug-13 20:30N 35°13' E 139°43'4 8.7
2017-Aug-13 20:00N 35°10' E 139°46'2 3.9
2017-Aug-13 19:30N 35°11' E 139°47'4 7.6
2017-Aug-13 19:00N 35°13' E 139°43'0 0.0
2017-Aug-13 18:25N 35°13' E 139°43'0 0.0
2017-Aug-13 17:47N 35°13' E 139°43'0 0.0
2017-Aug-13 17:30N 35°13' E 139°43'0 0.0
2017-Aug-13 17:00N 35°13' E 139°43'0 0.0
2017-Aug-13 16:23N 35°13' E 139°43'3 8.0
2017-Aug-13 16:00N 35°11' E 139°46'1 1.2
2017-Aug-13 15:30N 35°11' E 139°46'3 6.5
2017-Aug-13 15:00N 35°13' E 139°43'0 0.0
2017-Aug-13 14:30N 35°13' E 139°43'0 0.0
2017-Aug-13 14:00N 35°13' E 139°43'0 0.0
2017-Aug-13 13:29N 35°13' E 139°43'0 0.0
2017-Aug-13 13:00N 35°13' E 139°43'0 0.0
2017-Aug-13 12:30N 35°13' E 139°43'2 3.8
2017-Aug-13 12:00N 35°12' E 139°45'1 2.5
2017-Aug-13 11:30N 35°14' E 139°45'2 3.5
2017-Aug-13 11:00N 35°13' E 139°43'0 0.2
2017-Aug-13 10:30N 35°13' E 139°43'0 0.0
2017-Aug-13 10:00N 35°13' E 139°43'0 0.0
2017-Aug-13 09:30N 35°13' E 139°43'3 5.2
2017-Aug-13 09:00N 35°12' E 139°46'1 2.1
2017-Aug-13 08:30N 35°13' E 139°46'2 4.0
2017-Aug-13 08:00N 35°13' E 139°43'0 0.0
2017-Aug-13 07:30N 35°13' E 139°43'0 0.0
2017-Aug-13 07:00N 35°13' E 139°43'3 5.3
2017-Aug-13 06:30N 35°11' E 139°46'2 3.9
2017-Aug-13 06:00N 35°13' E 139°46'2 3.9
2017-Aug-13 05:30N 35°13' E 139°43'0 0.0
2017-Aug-13 05:00N 35°13' E 139°43'0 0.0
2017-Aug-13 04:30N 35°13' E 139°43'3 5.7
2017-Aug-13 04:00N 35°11' E 139°46'1 3.0
2017-Aug-13 03:30N 35°10' E 139°46'4 8.5
2017-Aug-13 03:00N 35°13' E 139°43'0 0.0
2017-Aug-13 02:30N 35°13' E 139°43'0 0.0
2017-Aug-13 02:00N 35°13' E 139°43'3 5.5
2017-Aug-13 01:30N 35°11' E 139°45'2 3.1
2017-Aug-13 01:00N 35°10' E 139°47'4 8.1
2017-Aug-13 00:29N 35°13' E 139°43'0 0.0
2017-Aug-12 23:59N 35°13' E 139°43'0 0.0
2017-Aug-12 23:30N 35°13' E 139°43'2 4.2
2017-Aug-12 23:00N 35°12' E 139°45'1 2.7
2017-Aug-12 22:30N 35°14' E 139°45'2 3.7
2017-Aug-12 22:00N 35°13' E 139°43'0 0.0
2017-Aug-12 21:30N 35°13' E 139°43'0 0.2
2017-Aug-12 21:01N 35°13' E 139°43'5 9.5
2017-Aug-12 20:30N 35°10' E 139°47'2 3.5
2017-Aug-12 20:00N 35°11' E 139°46'3 5.8
2017-Aug-12 19:29N 35°13' E 139°43'0 0.0
2017-Aug-12 19:00N 35°13' E 139°43'0 0.0
2017-Aug-12 18:30N 35°13' E 139°43'0 0.0
2017-Aug-12 18:00N 35°13' E 139°43'0 0.0
2017-Aug-12 17:30N 35°13' E 139°43'0 0.0
2017-Aug-12 17:00N 35°13' E 139°43'0 0.0
2017-Aug-12 16:30N 35°13' E 139°43'0 0.0
2017-Aug-12 16:00N 35°13' E 139°43'2 4.5
2017-Aug-12 15:30N 35°13' E 139°46'1 1.8
2017-Aug-12 15:00N 35°13' E 139°45'2 3.4
2017-Aug-12 14:30N 35°13' E 139°43'0 0.0
2017-Aug-12 14:00N 35°13' E 139°43'0 0.0
2017-Aug-12 13:30N 35°13' E 139°43'0 0.0
2017-Aug-12 13:00N 35°13' E 139°43'0 0.0
2017-Aug-12 12:30N 35°13' E 139°43'0 0.0
2017-Aug-12 12:00N 35°13' E 139°43'0 0.0
2017-Aug-12 11:30N 35°13' E 139°43'0 0.0
2017-Aug-12 11:00N 35°13' E 139°43'0 0.0
2017-Aug-12 10:30N 35°13' E 139°43'0 0.0
2017-Aug-12 10:00N 35°13' E 139°43'2 4.3
2017-Aug-12 09:30N 35°13' E 139°46'1 2.1
2017-Aug-12 09:00N 35°13' E 139°45'1 1.8
2017-Aug-12 08:24N 35°13' E 139°43'0 0.0
2017-Aug-12 08:00N 35°13' E 139°43'0 0.0
2017-Aug-12 07:30N 35°13' E 139°43'1 2.0
2017-Aug-12 07:00N 35°13' E 139°44'3 6.1
2017-Aug-12 06:31N 35°10' E 139°46'4 7.6
2017-Aug-12 06:00N 35°13' E 139°43'0 0.0
2017-Aug-12 05:30N 35°13' E 139°43'3 6.0
2017-Aug-12 05:00N 35°11' E 139°45'2 3.2
2017-Aug-12 04:30N 35°10' E 139°47'4 8.9
2017-Aug-12 04:00N 35°13' E 139°43'0 0.0
2017-Aug-12 03:30N 35°13' E 139°43'0 0.0
2017-Aug-12 03:00N 35°13' E 139°43'0 0.0
2017-Aug-12 02:30N 35°13' E 139°43'0 0.0
2017-Aug-12 01:59N 35°13' E 139°43'2 4.4
2017-Aug-12 01:30N 35°12' E 139°45'1 2.2
2017-Aug-12 01:00N 35°11' E 139°46'3 6.1
2017-Aug-12 00:30N 35°13' E 139°43'0 0.0
2017-Aug-12 00:00N 35°13' E 139°43'0 0.0
2017-Aug-11 23:30N 35°13' E 139°43'3 6.6
2017-Aug-11 23:00N 35°10' E 139°45'1 2.4
2017-Aug-11 22:30N 35°12' E 139°46'3 5.4
2017-Aug-11 22:00N 35°13' E 139°43'0 0.0
2017-Aug-11 21:30N 35°13' E 139°43'0 0.0
2017-Aug-11 21:00N 35°13' E 139°43'0 0.0
2017-Aug-11 20:30N 35°13' E 139°43'1 2.7
2017-Aug-11 20:00N 35°13' E 139°45'4 7.0
2017-Aug-11 19:30N 35°10' E 139°47'5 9.5
2017-Aug-11 19:00N 35°13' E 139°43'0 0.1
2017-Aug-11 18:30N 35°13' E 139°43'0 0.0
2017-Aug-11 18:00N 35°13' E 139°43'0 0.0
2017-Aug-11 17:30N 35°13' E 139°43'0 0.0
2017-Aug-11 17:00N 35°13' E 139°43'0 0.0
2017-Aug-11 16:30N 35°13' E 139°43'0 0.0
2017-Aug-11 16:00N 35°13' E 139°43'0 0.0
2017-Aug-11 15:30N 35°13' E 139°43'0 0.0
2017-Aug-11 15:00N 35°13' E 139°43'0 0.0
2017-Aug-11 14:30N 35°13' E 139°43'2 1.7
2017-Aug-11 13:30N 35°13' E 139°45'2 3.3
2017-Aug-11 13:00N 35°13' E 139°43'0 0.0
2017-Aug-11 12:30N 35°13' E 139°43'0 0.0
2017-Aug-11 12:00N 35°13' E 139°43'0 0.0
2017-Aug-11 11:30N 35°13' E 139°43'0 0.0
2017-Aug-11 11:00N 35°13' E 139°43'0 0.0
2017-Aug-11 10:30N 35°13' E 139°43'0 0.0
2017-Aug-11 10:00N 35°13' E 139°43'0 0.0
2017-Aug-11 09:29N 35°13' E 139°43'0 0.0
2017-Aug-11 09:00N 35°13' E 139°43'1 1.0
2017-Aug-11 08:28N 35°13' E 139°44'0 0.2
2017-Aug-11 08:00N 35°13' E 139°44'1 1.1
2017-Aug-11 07:30N 35°13' E 139°43'0 0.0
2017-Aug-11 07:00N 35°13' E 139°43'0 0.0
2017-Aug-11 06:30N 35°13' E 139°43'0 0.0
2017-Aug-11 05:59N 35°13' E 139°43'0 0.0
2017-Aug-11 05:30N 35°13' E 139°43'0 0.0
2017-Aug-11 05:00N 35°13' E 139°43'0 0.0
2017-Aug-11 04:30N 35°13' E 139°43'1 1.1
2017-Aug-11 04:00N 35°13' E 139°44'1 1.1
2017-Aug-11 03:30N 35°13' E 139°43'0 0.0
2017-Aug-11 03:00N 35°13' E 139°43'0 0.0
2017-Aug-11 02:30N 35°13' E 139°43'0 0.0
2017-Aug-11 02:00N 35°13' E 139°43'2 4.4
2017-Aug-11 01:30N 35°13' E 139°46'1 1.7
2017-Aug-11 01:00N 35°13' E 139°45'2 3.4
2017-Aug-11 00:30N 35°13' E 139°43'0 0.0
2017-Aug-11 00:00N 35°13' E 139°43'0 0.0
2017-Aug-10 23:30N 35°13' E 139°43'0 0.0
2017-Aug-10 23:00N 35°13' E 139°43'0 0.0
2017-Aug-10 22:30N 35°13' E 139°43'0 0.0
2017-Aug-10 22:00N 35°13' E 139°43'0 0.0
2017-Aug-10 21:30N 35°13' E 139°43'0 0.0
2017-Aug-10 21:00N 35°13' E 139°43'0 0.0
2017-Aug-10 20:30N 35°13' E 139°43'0 0.0
2017-Aug-10 20:00N 35°13' E 139°43'0 0.0
2017-Aug-10 19:30N 35°13' E 139°43'1 2.2
2017-Aug-10 19:00N 35°13' E 139°44'1 2.0
2017-Aug-10 18:30N 35°13' E 139°46'1 2.0
2017-Aug-10 18:00N 35°13' E 139°44'1 2.1
2017-Aug-10 17:30N 35°13' E 139°43'0 0.0
2017-Aug-10 17:00N 35°13' E 139°43'0 0.0
2017-Aug-10 16:30N 35°13' E 139°43'2 3.5
2017-Aug-10 16:00N 35°14' E 139°45'2 3.3
2017-Aug-10 15:30N 35°13' E 139°43'0 0.0
2017-Aug-10 14:59N 35°13' E 139°43'0 0.0
2017-Aug-10 14:30N 35°13' E 139°43'0 0.0
2017-Aug-10 14:00N 35°13' E 139°43'0 0.0
2017-Aug-10 13:30N 35°13' E 139°43'0 0.0
2017-Aug-10 13:00N 35°13' E 139°43'2 3.9
2017-Aug-10 12:30N 35°13' E 139°46'1 2.0
2017-Aug-10 12:00N 35°13' E 139°44'1 2.1
2017-Aug-10 11:30N 35°13' E 139°43'0 0.0
2017-Aug-10 11:00N 35°13' E 139°43'2 4.9
2017-Aug-10 10:30N 35°13' E 139°46'1 2.4
2017-Aug-10 10:00N 35°14' E 139°45'2 3.6
2017-Aug-10 09:30N 35°13' E 139°43'0 0.0
2017-Aug-10 09:00N 35°13' E 139°43'0 0.0
2017-Aug-10 08:30N 35°13' E 139°43'0 0.0
2017-Aug-10 08:00N 35°13' E 139°43'3 5.0
2017-Aug-10 07:30N 35°12' E 139°46'2 4.3
2017-Aug-10 07:01N 35°14' E 139°45'2 3.7
2017-Aug-10 06:30N 35°13' E 139°43'2 3.4
2017-Aug-10 06:00N 35°14' E 139°45'2 3.7
2017-Aug-10 05:30N 35°13' E 139°43'0 0.3
2017-Aug-10 05:00N 35°13' E 139°43'0 0.0
2017-Aug-10 04:30N 35°13' E 139°43'0 0.0
2017-Aug-10 04:00N 35°13' E 139°43'0 0.0
2017-Aug-10 03:30N 35°13' E 139°43'0 0.0
2017-Aug-10 03:00N 35°13' E 139°43'0 0.0
2017-Aug-10 02:30N 35°13' E 139°43'0 0.0
2017-Aug-10 02:01N 35°13' E 139°43'0 0.0
2017-Aug-10 01:30N 35°13' E 139°43'0 0.0
2017-Aug-10 00:58N 35°13' E 139°43'0 0.0
2017-Aug-10 00:30N 35°13' E 139°43'4 8.3
2017-Aug-10 00:00N 35°10' E 139°46'1 2.1
2017-Aug-09 23:30N 35°11' E 139°46'3 6.5
2017-Aug-09 23:00N 35°13' E 139°43'0 0.0
2017-Aug-09 22:30N 35°13' E 139°43'0 0.0
2017-Aug-09 22:00N 35°13' E 139°43'0 0.0
2017-Aug-09 21:30N 35°13' E 139°43'0 0.0
2017-Aug-09 21:00N 35°13' E 139°43'510.5
2017-Aug-09 20:30N 35°09' E 139°47'4 8.1
2017-Aug-09 20:00N 35°13' E 139°45'1 3.0
2017-Aug-09 19:30N 35°13' E 139°43'0 0.0
2017-Aug-09 19:00N 35°13' E 139°43'0 0.0
2017-Aug-09 18:30N 35°13' E 139°43'2 4.6
2017-Aug-09 18:01N 35°13' E 139°46'1 1.6
2017-Aug-09 17:31N 35°13' E 139°45'2 3.4
2017-Aug-09 17:00N 35°13' E 139°43'0 0.0
2017-Aug-09 16:31N 35°13' E 139°43'0 0.0
2017-Aug-09 16:00N 35°13' E 139°43'0 0.0
2017-Aug-09 15:30N 35°13' E 139°43'0 0.0
2017-Aug-09 14:57N 35°13' E 139°43'0 0.0
2017-Aug-09 14:30N 35°13' E 139°43'0 0.0
2017-Aug-09 14:00N 35°13' E 139°43'0 0.0
2017-Aug-09 13:30N 35°13' E 139°43'0 0.0
2017-Aug-09 13:01N 35°13' E 139°43'0 0.0
2017-Aug-09 12:31N 35°13' E 139°43'0 0.0
2017-Aug-09 12:00N 35°13' E 139°43'0 0.0
2017-Aug-09 11:30N 35°13' E 139°43'1 2.5
2017-Aug-09 11:01N 35°13' E 139°45'1 2.3
2017-Aug-09 10:30N 35°14' E 139°45'2 4.8
2017-Aug-09 10:01N 35°11' E 139°46'1 1.6
2017-Aug-09 09:30N 35°11' E 139°47'4 7.7
2017-Aug-09 09:00N 35°13' E 139°43'3 5.1
2017-Aug-09 08:30N 35°12' E 139°46'1 1.9
2017-Aug-09 08:00N 35°13' E 139°46'1 1.7
2017-Aug-09 07:30N 35°14' E 139°46'3 5.9
2017-Aug-09 07:00N 35°11' E 139°45'1 2.1
2017-Aug-09 06:30N 35°11' E 139°47'3 6.6
2017-Aug-09 06:00N 35°13' E 139°43'0 0.0
2017-Aug-09 05:30N 35°13' E 139°43'0 0.0
2017-Aug-09 05:00N 35°13' E 139°43'0 0.0
2017-Aug-09 04:30N 35°13' E 139°43'0 0.0
2017-Aug-09 04:00N 35°13' E 139°43'0 0.0
2017-Aug-09 03:30N 35°13' E 139°43'0 0.0
2017-Aug-09 03:00N 35°13' E 139°43'0 0.0
2017-Aug-09 02:30N 35°13' E 139°43'1 1.7
2017-Aug-09 02:00N 35°13' E 139°44'4 8.3
2017-Aug-09 01:30N 35°10' E 139°47'3 6.1
2017-Aug-09 01:01N 35°12' E 139°45'2 3.6
2017-Aug-09 00:30N 35°13' E 139°43'0 0.0
2017-Aug-09 00:00N 35°13' E 139°43'0 0.0
2017-Aug-08 23:30N 35°13' E 139°43'  

Dump ship's entire track history